Time;durP1;ratioP1;P1;durP2;ratioP2;P2;SDS_P1;SDS_P2;PMS_P1;PMS_P2;Temp;Humidity;BMP_temperature;BMP_pressure;BME280_temperature;BME280_humidity;BME280_pressure;Samples;Min_cycle;Max_cycle;Signal;HPM_P1;HPM_P2
2021/10/07 00:01:44;;;;;;;17.17;7.78;;;;;;;2.36;63.62;102067.56;1632087;86;21641;-70
2021/10/07 00:04:10;;;;;;;19.92;7.58;;;;;;;2.33;64.18;102072.69;1608986;89;21096;-71
2021/10/07 00:06:37;;;;;;;19.70;7.92;;;;;;;2.27;64.91;102070.36;1619467;88;21069;-72
2021/10/07 00:09:05;;;;;;;19.07;6.80;;;;;;;2.24;64.33;102078.08;1635329;87;21090;-71
2021/10/07 00:11:35;;;;;;;19.60;5.97;;;;;;;2.19;65.10;102073.60;1615738;87;21061;-71
2021/10/07 00:14:03;;;;;;;15.20;6.67;;;;;;;2.14;65.03;102075.16;1618486;88;21172;-71
2021/10/07 00:16:30;;;;;;;21.85;7.00;;;;;;;2.10;65.12;102071.19;1618572;88;21581;-72
2021/10/07 00:18:56;;;;;;;25.68;7.50;;;;;;;2.06;66.00;102072.36;1657753;86;21061;-71
2021/10/07 00:21:23;;;;;;;26.90;6.80;;;;;;;2.03;65.34;102080.08;1657722;86;21722;-71
2021/10/07 00:26:26;;;;;;;104.58;41.30;;;;;;;1.98;65.83;102074.74;1657489;86;21158;-71
2021/10/07 00:28:57;;;;;;;31.25;12.18;;;;;;;1.95;65.90;102079.83;1657489;86;21052;-72
2021/10/07 00:31:24;;;;;;;19.45;6.62;;;;;;;1.93;65.87;102074.13;1658117;85;22184;-71
2021/10/07 00:39:03;;;;;;;18.20;6.58;;;;;;;1.88;66.57;102070.97;1645810;86;21140;-71
2021/10/07 00:41:33;;;;;;;14.45;5.87;;;;;;;1.87;65.87;102073.12;1658122;85;21140;-71
2021/10/07 00:44:05;;;;;;;16.83;6.43;;;;;;;1.87;66.12;102079.61;1657976;86;21101;-71
2021/10/07 00:46:34;;;;;;;31.07;7.10;;;;;;;1.85;66.57;102081.28;1681878;85;21153;-71
2021/10/07 00:49:01;;;;;;;22.67;6.40;;;;;;;1.85;65.90;102089.50;1683675;85;21112;-73
2021/10/07 00:51:28;;;;;;;18.25;5.53;;;;;;;1.85;67.05;102083.88;1685311;85;21977;-71
2021/10/07 00:53:54;;;;;;;19.27;6.30;;;;;;;1.85;66.14;102091.67;1685775;85;21068;-72
2021/10/07 00:56:21;;;;;;;19.62;5.90;;;;;;;1.87;66.19;102094.33;1685361;85;21604;-72
2021/10/07 00:58:48;;;;;;;15.70;6.20;;;;;;;1.84;66.76;102092.52;1685440;85;21558;-73
2021/10/07 01:01:16;;;;;;;20.25;6.67;;;;;;;1.81;66.25;102096.30;1683211;84;21089;-73
2021/10/07 01:03:42;;;;;;;16.75;5.85;;;;;;;1.79;66.27;102099.27;1681215;85;21177;-71
2021/10/07 01:06:08;;;;;;;13.50;6.42;;;;;;;1.73;66.59;102093.91;1675341;85;21446;-71
2021/10/07 01:08:35;;;;;;;23.95;6.70;;;;;;;1.76;66.44;102097.89;1672904;85;21062;-72
2021/10/07 01:11:03;;;;;;;13.05;6.17;;;;;;;1.73;67.52;102093.91;1673360;85;21027;-71
2021/10/07 01:13:31;;;;;;;18.77;6.30;;;;;;;1.72;66.55;102097.32;1673046;85;21106;-72
2021/10/07 01:16:02;;;;;;;14.45;6.33;;;;;;;1.70;66.66;102101.59;1647733;85;21180;-71
2021/10/07 01:18:29;;;;;;;24.30;6.30;;;;;;;1.70;67.06;102104.19;1673314;85;21090;-71
2021/10/07 01:20:55;;;;;;;16.65;6.47;;;;;;;1.71;66.50;102103.37;1672976;85;21683;-72
2021/10/07 01:23:22;;;;;;;13.78;5.67;;;;;;;1.72;66.67;102101.64;1673224;85;21058;-71
2021/10/07 01:25:48;;;;;;;17.52;7.00;;;;;;;1.70;66.27;102099.41;1673570;85;21114;-70
2021/10/07 01:28:14;;;;;;;13.60;5.40;;;;;;;1.70;66.27;102099.41;1648141;85;21049;-71
2021/10/07 01:30:43;;;;;;;12.95;5.92;;;;;;;1.70;66.96;102106.78;1673208;85;21122;-69
2021/10/07 01:33:09;;;;;;;14.78;6.30;;;;;;;1.69;66.41;102110.23;1673092;85;21597;-70
2021/10/07 01:35:36;;;;;;;15.50;5.60;;;;;;;1.59;66.71;102115.98;1673225;85;21097;-70
2021/10/07 01:38:04;;;;;;;13.70;6.25;;;;;;;1.59;66.71;102115.98;1673276;85;21568;-70
2021/10/07 01:40:31;;;;;;;16.27;6.25;;;;;;;1.61;66.77;102119.48;1673404;85;21098;-70
2021/10/07 01:42:57;;;;;;;13.10;6.35;;;;;;;1.54;66.68;102116.23;1673211;85;21653;-70
2021/10/07 01:45:24;;;;;;;16.93;6.10;;;;;;;1.54;66.68;102116.23;1673656;85;21608;-70
2021/10/07 01:47:51;;;;;;;26.95;6.62;;;;;;;1.52;66.97;102124.38;1673136;85;21122;-71
2021/10/07 01:50:18;;;;;;;19.62;6.42;;;;;;;1.48;67.82;102114.76;1673118;85;21113;-72
2021/10/07 01:52:45;;;;;;;15.78;6.37;;;;;;;1.49;67.33;102121.70;1673299;85;21173;-72
2021/10/07 01:55:11;;;;;;;14.73;6.53;;;;;;;1.45;67.29;102121.61;1673471;85;21623;-70
2021/10/07 01:57:37;;;;;;;13.55;6.83;;;;;;;1.45;67.29;102121.61;1673481;85;21079;-71
2021/10/07 02:00:07;;;;;;;21.30;7.00;;;;;;;1.44;67.39;102124.14;1673200;85;21042;-74
2021/10/07 02:02:36;;;;;;;18.90;8.23;;;;;;;1.42;67.71;102129.28;1676879;85;21089;-75
2021/10/07 02:05:04;;;;;;;12.70;6.50;;;;;;;1.38;67.46;102120.95;1679443;84;21101;-74
2021/10/07 02:07:30;;;;;;;14.00;5.90;;;;;;;1.37;69.17;102123.06;1685634;85;21069;-74
2021/10/07 02:09:57;;;;;;;11.73;5.85;;;;;;;1.38;67.70;102134.32;1685172;85;21070;-73
2021/10/07 02:12:23;;;;;;;13.03;6.03;;;;;;;1.36;68.18;102132.13;1685773;85;21033;-75
2021/10/07 02:14:50;;;;;;;12.58;5.95;;;;;;;1.35;68.33;102132.52;1685512;85;21110;-72
2021/10/07 02:17:16;;;;;;;15.75;6.72;;;;;;;1.34;67.79;102141.15;1685857;85;21806;-70
2021/10/07 02:19:45;;;;;;;14.70;6.12;;;;;;;1.30;67.98;102139.27;1684659;85;21038;-72
2021/10/07 02:22:11;;;;;;;14.90;6.60;;;;;;;1.30;67.98;102139.27;1685467;85;21466;-70
2021/10/07 02:24:39;;;;;;;12.23;5.65;;;;;;;1.28;68.03;102139.64;1685664;85;21078;-71
2021/10/07 02:27:05;;;;;;;16.15;6.08;;;;;;;1.25;68.93;102130.46;1685523;85;21132;-71
2021/10/07 02:29:32;;;;;;;16.95;5.65;;;;;;;1.23;68.30;102133.41;1685510;85;21151;-70
2021/10/07 02:31:58;;;;;;;15.95;5.97;;;;;;;1.21;68.72;102149.35;1685386;85;21065;-70
2021/10/07 02:34:24;;;;;;;18.92;6.42;;;;;;;1.16;69.41;102137.94;1685504;85;21077;-71
2021/10/07 02:36:51;;;;;;;13.38;5.92;;;;;;;1.17;69.04;102139.27;1685238;85;21094;-72
2021/10/07 02:39:20;;;;;;;14.47;6.40;;;;;;;1.17;69.64;102147.47;1685419;85;21081;-71
2021/10/07 02:41:47;;;;;;;15.30;6.87;;;;;;;1.14;69.16;102144.79;1685450;85;21147;-72
2021/10/07 02:44:13;;;;;;;15.35;6.00;;;;;;;1.11;69.30;102142.97;1685543;85;21093;-70
2021/10/07 02:46:39;;;;;;;18.87;7.85;;;;;;;1.11;69.47;102149.88;1685383;85;21350;-70
2021/10/07 02:49:06;;;;;;;25.88;10.05;;;;;;;1.09;69.18;102148.95;1685280;85;21049;-69
2021/10/07 02:51:33;;;;;;;23.67;9.40;;;;;;;1.04;70.23;102149.66;1685394;85;21099;-69
2021/10/07 02:53:59;;;;;;;23.42;9.63;;;;;;;1.01;69.77;102156.05;1685425;85;21108;-70
2021/10/07 02:56:26;;;;;;;28.35;9.75;;;;;;;0.98;70.18;102165.01;1685409;85;21053;-70
2021/10/07 02:58:52;;;;;;;27.52;10.30;;;;;;;0.93;70.82;102165.27;1685358;85;21097;-70
2021/10/07 03:01:18;;;;;;;22.93;8.95;;;;;;;0.90;70.53;102167.77;1693835;83;21042;-70
2021/10/07 03:03:46;;;;;;;28.25;9.13;;;;;;;0.86;72.41;102168.48;1711070;83;21105;-71
2021/10/07 03:06:12;;;;;;;17.95;9.25;;;;;;;0.82;71.52;102166.18;1697717;83;21115;-71
2021/10/07 03:08:39;;;;;;;20.17;8.83;;;;;;;0.78;71.54;102171.20;1692855;84;21061;-72
2021/10/07 03:11:05;;;;;;;19.40;8.13;;;;;;;0.71;72.40;102177.00;1692714;84;21102;-74
2021/10/07 03:13:31;;;;;;;18.48;8.40;;;;;;;0.67;71.82;102182.90;1692821;84;21073;-72
2021/10/07 03:15:58;;;;;;;18.32;8.05;;;;;;;0.63;72.83;102185.39;1694968;84;21044;-72
2021/10/07 03:18:24;;;;;;;26.97;8.93;;;;;;;0.58;72.47;102184.77;1697010;84;21137;-71
2021/10/07 03:20:52;;;;;;;27.20;8.85;;;;;;;0.52;72.67;102182.81;1698107;83;21163;-72
2021/10/07 03:23:18;;;;;;;21.97;9.38;;;;;;;0.46;73.80;102184.30;1698527;84;21060;-72
2021/10/07 03:25:45;;;;;;;29.02;9.93;;;;;;;0.40;73.64;102178.06;1698617;83;21073;-70
2021/10/07 03:28:11;;;;;;;20.68;9.25;;;;;;;0.32;73.97;102180.80;1694883;84;22040;-73
2021/10/07 03:30:38;;;;;;;26.20;9.50;;;;;;;0.26;74.18;102180.97;1694370;84;21320;-71
2021/10/07 03:33:08;;;;;;;26.40;8.93;;;;;;;0.22;74.44;102172.19;1693661;84;21450;-71
2021/10/07 03:35:35;;;;;;;30.17;9.80;;;;;;;0.21;74.80;102180.80;1693198;84;21045;-71
2021/10/07 03:38:03;;;;;;;25.23;10.18;;;;;;;0.19;74.71;102170.78;1697169;84;21242;-72
2021/10/07 03:40:30;;;;;;;24.72;10.48;;;;;;;0.16;75.13;102171.55;1700679;84;21122;-70
2021/10/07 03:42:56;;;;;;;20.05;9.88;;;;;;;0.15;75.58;102177.96;1700494;81;21126;-76
2021/10/07 03:45:23;;;;;;;30.70;9.93;;;;;;;0.15;75.50;102180.14;1700525;83;21019;-78
2021/10/07 03:47:49;;;;;;;19.00;9.15;;;;;;;0.13;75.88;102174.42;1702915;83;20968;-73
2021/10/07 03:50:16;;;;;;;28.15;9.45;;;;;;;0.11;75.80;102189.91;1697675;84;21357;-74
2021/10/07 03:52:42;;;;;;;22.75;8.75;;;;;;;0.11;76.27;102182.13;1698163;84;21301;-72
2021/10/07 03:55:09;;;;;;;22.75;9.03;;;;;;;0.12;76.28;102190.39;1697644;84;21153;-71
2021/10/07 03:57:36;;;;;;;23.32;9.30;;;;;;;0.12;75.92;102193.41;1697671;84;21049;-73
2021/10/07 04:00:05;;;;;;;19.02;9.80;;;;;;;0.09;76.21;102188.98;1697259;84;21084;-73
2021/10/07 04:02:35;;;;;;;18.12;8.70;;;;;;;0.10;76.10;102189.87;1691951;84;21100;-75
2021/10/07 04:05:03;;;;;;;20.37;9.80;;;;;;;0.09;76.13;102191.58;1687613;84;21073;-74
2021/10/07 04:07:31;;;;;;;27.70;11.22;;;;;;;0.11;76.52;102191.62;1688051;84;21073;-74
2021/10/07 04:09:59;;;;;;;26.10;9.03;;;;;;;0.10;76.11;102192.03;1689329;84;21053;-73
2021/10/07 04:12:27;;;;;;;20.75;8.38;;;;;;;0.08;76.51;102191.09;1690184;84;21086;-74
2021/10/07 04:14:54;;;;;;;24.43;7.62;;;;;;;0.06;76.38;102194.45;1688905;84;21109;-74
2021/10/07 04:17:20;;;;;;;24.45;7.95;;;;;;;0.03;76.32;102199.10;1688178;83;21101;-76
2021/10/07 04:19:47;;;;;;;19.77;7.10;;;;;;;0.03;76.73;102195.64;1688610;84;21110;-78
2021/10/07 04:22:13;;;;;;;22.20;7.55;;;;;;;-0.01;76.52;102190.73;1688720;84;21129;-79
2021/10/07 04:24:39;;;;;;;14.70;6.80;;;;;;;-0.01;76.95;102201.09;1688981;84;21275;-72
2021/10/07 04:27:06;;;;;;;19.92;7.92;;;;;;;-0.06;77.26;102194.44;1688557;84;21157;-72
2021/10/07 04:29:33;;;;;;;17.77;7.90;;;;;;;-0.07;77.22;102191.77;1689776;83;21010;-72
2021/10/07 04:31:59;;;;;;;19.07;8.58;;;;;;;-0.06;77.39;102201.33;1690369;84;21102;-72
2021/10/07 04:34:25;;;;;;;23.22;8.03;;;;;;;-0.05;77.40;102197.91;1688818;83;21006;-76
2021/10/07 04:36:51;;;;;;;20.32;8.33;;;;;;;-0.01;77.51;102204.98;1686216;84;21108;-74
2021/10/07 04:39:18;;;;;;;24.72;9.25;;;;;;;0.04;77.80;102203.86;1690460;84;21053;-74
2021/10/07 04:41:45;;;;;;;22.50;8.88;;;;;;;0.10;77.12;102202.41;1689366;84;21090;-75
2021/10/07 04:44:14;;;;;;;26.65;8.68;;;;;;;0.18;77.44;102206.19;1689826;84;21122;-78
2021/10/07 04:46:41;;;;;;;28.17;9.18;;;;;;;0.26;77.08;102206.89;1687061;84;21097;-79
2021/10/07 04:49:07;;;;;;;22.77;8.18;;;;;;;0.43;76.62;102213.58;1689935;84;21093;-74
2021/10/07 04:51:35;;;;;;;21.77;8.35;;;;;;;0.91;75.49;102211.03;1689782;83;21540;-78
2021/10/07 04:54:01;;;;;;;22.35;7.70;;;;;;;1.52;73.72;102210.08;1690201;83;21075;-82
2021/10/07 04:56:27;;;;;;;25.48;8.50;;;;;;;2.16;69.49;102206.06;1687675;84;21176;-82
2021/10/07 04:58:56;;;;;;;22.37;7.85;;;;;;;2.49;68.51;102214.02;1692076;84;21026;-83
2021/10/07 05:01:23;;;;;;;23.80;7.58;;;;;;;2.47;66.69;102211.78;1691934;84;21121;-86
2021/10/07 05:03:50;;;;;;;24.15;9.00;;;;;;;2.35;66.59;102216.20;1661627;85;21049;-83
2021/10/07 05:06:20;;;;;;;30.17;9.98;;;;;;;2.23;67.08;102211.52;1686467;85;21093;-83
2021/10/07 05:08:46;;;;;;;26.97;8.48;;;;;;;2.19;67.10;102220.05;1686033;83;21969;-84
2021/10/07 05:11:13;;;;;;;27.67;8.93;;;;;;;2.56;67.74;102215.95;1686121;85;21038;-83
2021/10/07 05:13:40;;;;;;;25.97;9.55;;;;;;;3.14;64.38;102216.27;1686838;85;21081;-84
2021/10/07 05:16:07;;;;;;;38.60;9.55;;;;;;;3.76;62.76;102213.94;1686564;85;21528;-81
2021/10/07 05:18:33;;;;;;;38.80;10.95;;;;;;;4.39;59.62;102216.28;1685738;83;21030;-82
2021/10/07 05:21:00;;;;;;;33.28;10.53;;;;;;;4.93;56.93;102208.67;1686160;85;21160;-83
2021/10/07 05:23:26;;;;;;;33.35;10.90;;;;;;;5.42;55.19;102210.44;1685721;85;21089;-82
2021/10/07 05:25:53;;;;;;;40.30;11.18;;;;;;;5.91;53.79;102215.59;1685931;85;21690;-84
2021/10/07 05:28:19;;;;;;;34.75;10.23;;;;;;;6.32;51.60;102220.59;1689845;83;21086;-85
2021/10/07 05:30:46;;;;;;;40.05;11.75;;;;;;;6.66;51.10;102216.69;1685985;85;21145;-83
2021/10/07 05:33:13;;;;;;;32.65;9.50;;;;;;;6.91;49.61;102210.00;1686885;83;21020;-81
2021/10/07 05:35:39;;;;;;;37.65;11.75;;;;;;;7.15;48.56;102213.74;1691823;83;21849;-83
2021/10/07 05:38:06;;;;;;;26.93;9.50;;;;;;;7.37;47.83;102210.05;1670767;85;21653;-85
2021/10/07 05:40:32;;;;;;;44.00;10.65;;;;;;;7.63;47.13;102208.95;1676233;85;21085;-84
2021/10/07 05:42:58;;;;;;;48.85;9.75;;;;;;;8.02;46.31;102220.19;1678231;85;21088;-84
2021/10/07 05:45:25;;;;;;;51.25;11.78;;;;;;;8.29;45.11;102225.18;1684939;85;21843;-83
2021/10/07 05:47:51;;;;;;;47.43;11.50;;;;;;;8.45;44.56;102220.93;1685266;85;21053;-85
2021/10/07 05:50:18;;;;;;;47.90;12.50;;;;;;;8.65;43.94;102221.00;1684935;85;21045;-80
2021/10/07 05:52:44;;;;;;;43.05;12.00;;;;;;;8.81;43.44;102218.88;1685276;85;21140;-84
2021/10/07 05:55:11;;;;;;;47.50;10.25;;;;;;;8.93;43.51;102229.89;1685654;85;21145;-83
2021/10/07 05:57:38;;;;;;;61.15;12.45;;;;;;;9.06;43.16;102217.65;1685821;85;21858;-84
2021/10/07 06:00:07;;;;;;;40.50;10.58;;;;;;;9.23;42.15;102231.72;1685670;85;21049;-84
2021/10/07 06:02:36;;;;;;;39.63;10.55;;;;;;;9.34;42.20;102227.78;1687895;83;21034;-85
2021/10/07 06:05:05;;;;;;;37.42;9.98;;;;;;;9.49;41.61;102233.52;1690099;84;21065;-85
2021/10/07 06:07:32;;;;;;;39.18;8.68;;;;;;;9.62;41.14;102232.66;1690030;84;21082;-83
2021/10/07 06:09:58;;;;;;;36.98;9.23;;;;;;;9.77;41.09;102227.38;1690345;84;21137;-80
2021/10/07 06:12:26;;;;;;;29.35;8.40;;;;;;;9.86;41.06;102235.71;1691468;84;21031;-84
2021/10/07 06:14:52;;;;;;;29.00;8.30;;;;;;;10.06;40.51;102229.13;1689792;83;21073;-83
2021/10/07 06:17:19;;;;;;;25.50;7.62;;;;;;;10.16;40.26;102232.61;1684453;84;21031;-85
2021/10/07 06:19:47;;;;;;;23.55;7.47;;;;;;;10.39;39.96;102227.33;1686696;84;21106;-83
2021/10/07 06:22:14;;;;;;;40.70;9.40;;;;;;;10.53;39.73;102239.14;1692347;83;21972;-84
2021/10/07 06:24:41;;;;;;;26.10;9.55;;;;;;;10.69;39.56;102225.89;1690880;84;21057;-85
2021/10/07 06:27:09;;;;;;;30.92;9.15;;;;;;;11.06;39.70;102219.13;1691689;83;21096;-84
2021/10/07 06:29:36;;;;;;;28.67;7.55;;;;;;;11.38;38.59;102219.37;1688406;84;21150;-83
2021/10/07 06:32:05;;;;;;;25.97;7.95;;;;;;;11.62;38.14;102220.96;1688792;84;21021;-83
2021/10/07 06:34:32;;;;;;;21.20;7.08;;;;;;;11.90;38.04;102217.66;1694081;83;21114;-82
2021/10/07 06:36:58;;;;;;;14.20;6.72;;;;;;;12.18;36.56;102220.91;1692037;84;21090;-81
2021/10/07 06:39:24;;;;;;;25.72;7.40;;;;;;;12.31;36.29;102215.05;1694429;83;21021;-84
2021/10/07 06:41:51;;;;;;;20.50;7.03;;;;;;;12.29;36.42;102220.80;1692673;83;21110;-86
2021/10/07 06:44:20;;;;;;;18.67;5.47;;;;;;;12.23;36.00;102222.63;1690665;84;21013;-84
2021/10/07 06:46:46;;;;;;;16.73;5.75;;;;;;;12.22;35.99;102225.72;1692147;83;21120;-84
2021/10/07 06:49:13;;;;;;;11.50;5.65;;;;;;;11.93;35.77;102222.91;1691340;84;21037;-81
2021/10/07 06:51:40;;;;;;;17.20;7.15;;;;;;;12.10;36.15;102218.80;1690500;83;21117;-83
2021/10/07 06:54:07;;;;;;;17.60;5.42;;;;;;;12.37;36.18;102216.29;1690964;83;21536;-82
2021/10/07 06:56:34;;;;;;;12.00;5.60;;;;;;;12.57;34.79;102229.73;1691096;84;21536;-83
2021/10/07 06:59:00;;;;;;;9.50;4.83;;;;;;;12.61;34.87;102222.20;1691054;84;21154;-85
2021/10/07 07:01:29;;;;;;;13.80;5.37;;;;;;;12.68;34.24;102221.23;1691231;84;21104;-84
2021/10/07 07:03:57;;;;;;;10.18;4.92;;;;;;;12.79;33.94;102221.97;1684298;83;21073;-85
2021/10/07 07:06:24;;;;;;;9.53;4.85;;;;;;;12.86;33.85;102224.09;1673482;83;21086;-82
2021/10/07 07:08:51;;;;;;;11.45;5.33;;;;;;;12.84;33.39;102223.66;1680131;84;21119;-86
2021/10/07 07:11:18;;;;;;;14.58;5.70;;;;;;;12.71;34.06;102221.19;1681626;83;21229;-84
2021/10/07 07:13:45;;;;;;;20.00;6.08;;;;;;;12.73;34.25;102203.53;1681115;85;21038;-85
2021/10/07 07:16:12;;;;;;;20.57;5.97;;;;;;;12.96;34.05;102223.52;1680670;85;21137;-83
2021/10/07 07:18:40;;;;;;;15.85;6.33;;;;;;;13.21;33.77;102222.27;1678990;83;21085;-85
2021/10/07 07:21:07;;;;;;;17.67;6.15;;;;;;;13.47;33.08;102217.06;1677224;83;21027;-85
2021/10/07 07:23:33;;;;;;;20.50;5.40;;;;;;;13.70;32.77;102225.95;1681091;83;22117;-86
2021/10/07 07:26:00;;;;;;;16.27;4.50;;;;;;;14.00;32.17;102229.84;1681692;84;21074;-83
2021/10/07 07:28:26;;;;;;;13.55;4.78;;;;;;;14.00;31.55;102221.89;1680980;83;21187;-83
2021/10/07 07:30:53;;;;;;;15.10;4.33;;;;;;;14.01;31.14;102226.31;1677755;83;21030;-79
2021/10/07 07:33:26;;;;;;;12.68;3.83;;;;;;;14.20;30.75;102228.62;1680872;84;21155;-79
2021/10/07 07:35:51;;;;;;;9.98;3.95;;;;;;;14.45;30.67;102233.87;1674949;85;21237;-79
2021/10/07 07:38:18;;;;;;;10.08;4.65;;;;;;;14.65;30.87;102239.25;1672486;84;21560;-80
2021/10/07 07:40:45;;;;;;;16.97;4.45;;;;;;;14.89;30.29;102233.89;1680037;83;21168;-77
2021/10/07 07:43:18;;;;;;;17.10;4.45;;;;;;;15.13;29.47;102231.14;1680480;83;21093;-79
2021/10/07 07:45:39;;;;;;;13.62;4.62;;;;;;;15.22;28.97;102220.31;1679701;85;21077;-79
2021/10/07 07:48:06;;;;;;;12.37;4.70;;;;;;;15.40;28.65;102226.11;1680839;85;21096;-79
2021/10/07 07:50:32;;;;;;;15.93;5.65;;;;;;;15.49;28.59;102229.87;1680738;84;21077;-81
2021/10/07 07:52:59;;;;;;;18.12;5.40;;;;;;;15.57;28.57;102221.71;1680444;84;21086;-80
2021/10/07 07:55:26;;;;;;;14.45;4.33;;;;;;;15.79;28.85;102226.08;1680625;83;21560;-79
2021/10/07 07:57:52;;;;;;;16.62;4.28;;;;;;;15.97;27.74;102220.30;1680752;84;21125;-79
2021/10/07 08:00:19;;;;;;;9.83;3.90;;;;;;;16.21;27.33;102227.19;1676994;83;21126;-79
2021/10/07 08:02:46;;;;;;;11.95;3.52;;;;;;;16.58;26.42;102221.70;1673396;84;21553;-81
2021/10/07 08:05:14;;;;;;;10.98;2.87;;;;;;;16.74;25.42;102222.12;1688038;83;21594;-80
2021/10/07 08:07:41;;;;;;;8.78;3.20;;;;;;;16.76;24.94;102220.30;1689422;83;21108;-80
2021/10/07 08:10:09;;;;;;;11.68;3.47;;;;;;;16.82;25.27;102216.17;1688773;84;21057;-78
2021/10/07 08:12:39;;;;;;;10.10;3.77;;;;;;;16.94;25.36;102217.12;1690624;84;21141;-79
2021/10/07 08:15:07;;;;;;;14.68;5.08;;;;;;;17.03;25.50;102218.63;1690118;84;21655;-81
2021/10/07 08:17:34;;;;;;;28.47;7.05;;;;;;;17.15;25.95;102209.39;1689680;84;21093;-79
2021/10/07 08:20:03;;;;;;;18.70;5.40;;;;;;;17.36;25.73;102203.36;1689722;84;21097;-79
2021/10/07 08:22:30;;;;;;;10.28;3.67;;;;;;;17.37;25.08;102207.80;1689515;83;21345;-81
2021/10/07 08:24:56;;;;;;;17.52;4.25;;;;;;;17.35;24.82;102200.77;1685124;84;21121;-80
2021/10/07 08:27:26;;;;;;;14.95;3.77;;;;;;;17.46;25.35;102193.74;1707180;83;21129;-79
2021/10/07 08:29:51;;;;;;;13.45;3.83;;;;;;;17.67;24.44;102194.81;1656515;85;21097;-80
2021/10/07 08:32:18;;;;;;;10.68;3.80;;;;;;;17.86;23.93;102192.45;1655281;86;21077;-81
2021/10/07 08:34:45;;;;;;;6.37;3.08;;;;;;;17.86;24.27;102187.12;1602787;89;21597;-79
2021/10/07 08:37:11;;;;;;;5.95;3.12;;;;;;;17.74;23.52;102189.25;1662330;86;21523;-79
2021/10/07 08:39:37;;;;;;;12.20;3.00;;;;;;;17.54;23.42;102194.38;1688753;84;21502;-81
2021/10/07 08:44:57;;;;;;;8.55;3.12;;;;;;;17.36;24.34;102183.86;1778431;79;22671;-80
2021/10/07 08:47:25;;;;;;;12.03;2.90;;;;;;;17.52;24.37;102182.89;1742713;81;20985;-81
2021/10/07 08:49:52;;;;;;;15.85;3.95;;;;;;;17.44;23.69;102179.60;1747435;81;21154;-80
2021/10/07 08:52:20;;;;;;;18.70;3.20;;;;;;;17.21;24.08;102173.27;1717629;82;20971;-79
2021/10/07 08:54:47;;;;;;;9.90;3.25;;;;;;;17.01;24.73;102184.53;1679206;85;21093;-79
2021/10/07 08:57:14;;;;;;;7.72;3.15;;;;;;;16.76;24.73;102185.24;1673235;84;21146;-79
2021/10/07 08:59:41;;;;;;;15.15;3.30;;;;;;;16.35;25.33;102183.80;1680972;84;21165;-80
2021/10/07 09:02:14;;;;;;;14.38;3.17;;;;;;;16.39;26.13;102180.14;1676164;84;21124;-81
2021/10/07 09:04:41;;;;;;;9.83;2.98;;;;;;;16.70;25.46;102169.92;1678050;83;21494;-79
2021/10/07 09:07:09;;;;;;;12.40;3.70;;;;;;;17.18;27.08;102172.01;1674396;83;21104;-78
2021/10/07 09:09:40;;;;;;;11.08;2.90;;;;;;;17.29;25.50;102165.87;1681958;84;21274;-79
2021/10/07 09:12:09;;;;;;;9.65;3.17;;;;;;;17.40;24.98;102161.07;1679888;84;21125;-78
2021/10/07 09:14:44;;;;;;;9.10;2.65;;;;;;;17.70;24.66;102155.63;1671494;84;21097;-78
2021/10/07 09:17:14;;;;;;;8.63;2.60;;;;;;;17.99;23.95;102151.98;1667647;84;21077;-79
2021/10/07 09:19:43;;;;;;;15.03;2.83;;;;;;;18.07;22.68;102155.69;1669065;84;21073;-80
2021/10/07 09:22:25;;;;;;;18.40;2.47;;;;;;;17.71;22.83;102165.81;1673462;85;21360;-79
2021/10/07 09:24:53;;;;;;;7.08;1.92;;;;;;;17.09;23.31;102168.31;1690274;84;21051;-78
2021/10/07 09:27:29;;;;;;;8.40;2.08;;;;;;;16.61;23.83;102164.45;1698270;84;21204;-79
2021/10/07 09:30:01;;;;;;;6.95;2.10;;;;;;;16.34;24.04;102168.77;1688995;84;21616;-80
2021/10/07 09:32:36;;;;;;;12.10;2.27;;;;;;;15.97;24.38;102157.84;1685541;84;21176;-78
2021/10/07 09:35:05;;;;;;;14.05;2.52;;;;;;;15.61;25.39;102159.66;1693667;84;21100;-78
2021/10/07 09:37:36;;;;;;;11.97;2.87;;;;;;;15.80;25.52;102165.37;1689180;84;21639;-79
2021/10/07 09:40:14;;;;;;;7.00;2.22;;;;;;;16.22;24.80;102159.36;1686656;84;21792;-80
2021/10/07 09:42:45;;;;;;;8.18;2.17;;;;;;;16.57;24.28;102158.33;1686372;84;21097;-78
2021/10/07 09:45:20;;;;;;;8.20;2.17;;;;;;;16.67;23.66;102147.41;1670118;84;21089;-79
2021/10/07 09:48:04;;;;;;;10.38;3.10;;;;;;;16.78;23.96;102136.84;1666731;86;21587;-78
2021/10/07 09:50:36;;;;;;;7.72;2.12;;;;;;;16.77;24.54;102148.42;1666246;84;21081;-79
2021/10/07 09:53:07;;;;;;;6.22;2.12;;;;;;;16.54;23.79;102145.13;1668724;84;21160;-77
2021/10/07 09:55:47;;;;;;;6.78;2.10;;;;;;;16.40;23.93;102151.76;1664970;86;21073;-80
2021/10/07 09:58:21;;;;;;;11.48;2.55;;;;;;;16.15;23.83;102128.56;1670807;85;21065;-79
2021/10/07 10:00:54;;;;;;;18.00;2.47;;;;;;;16.32;24.65;102148.00;1680753;84;21342;-80
2021/10/07 10:03:22;;;;;;;10.38;2.62;;;;;;;16.43;24.31;102139.26;1716732;82;21030;-78
2021/10/07 10:05:50;;;;;;;9.55;2.80;;;;;;;16.75;24.12;102132.10;1732862;82;21157;-78
2021/10/07 10:08:18;;;;;;;9.05;2.40;;;;;;;17.28;23.11;102121.55;1704955;82;21041;-79
2021/10/07 10:10:46;;;;;;;5.65;1.80;;;;;;;17.91;22.59;102126.52;1708566;82;21113;-79
2021/10/07 10:13:14;;;;;;;6.47;2.08;;;;;;;18.12;21.05;102136.39;1734131;82;21426;-77
2021/10/07 10:15:42;;;;;;;11.05;2.30;;;;;;;17.95;21.03;102141.48;1723000;82;21574;-78
2021/10/07 10:18:15;;;;;;;5.75;1.95;;;;;;;17.78;21.90;102128.27;1715599;82;21663;-78
2021/10/07 10:20:51;;;;;;;38.15;3.22;;;;;;;17.84;21.11;102134.33;1703824;82;21097;-78
2021/10/07 10:23:22;;;;;;;11.18;1.82;;;;;;;18.02;21.51;102121.67;1711940;82;21014;-79
2021/10/07 10:26:05;;;;;;;5.75;1.70;;;;;;;18.33;23.39;102120.52;1704614;84;21543;-79
2021/10/07 10:28:50;;;;;;;16.27;2.00;;;;;;;18.34;20.22;102123.13;1705849;82;21140;-78
2021/10/07 10:31:38;;;;;;;4.72;1.90;;;;;;;18.42;22.32;102109.49;1635454;86;21591;-77
2021/10/07 10:34:16;;;;;;;9.98;1.85;;;;;;;18.32;21.93;102105.45;1679944;84;21095;-78
2021/10/07 10:36:59;;;;;;;4.37;1.80;;;;;;;18.33;20.72;102108.52;1686762;84;21124;-75
2021/10/07 10:39:33;;;;;;;3.98;1.50;;;;;;;18.45;20.38;102106.73;1712477;82;21081;-78
2021/10/07 10:42:07;;;;;;;10.82;2.15;;;;;;;18.07;20.54;102109.03;1716964;82;21089;-80
2021/10/07 10:44:52;;;;;;;14.40;2.00;;;;;;;17.71;21.29;102101.39;1719992;82;21213;-79
2021/10/07 10:47:22;;;;;;;6.47;1.60;;;;;;;17.59;20.50;102110.69;1718851;82;21077;-79
2021/10/07 10:49:56;;;;;;;9.03;1.62;;;;;;;17.29;21.33;102101.97;1680113;85;21092;-78
2021/10/07 10:52:42;;;;;;;14.25;2.67;;;;;;;17.26;21.15;102090.56;1734183;82;21060;-78
2021/10/07 10:55:19;;;;;;;12.75;2.67;;;;;;;17.29;21.85;102104.63;1735291;82;21067;-79
2021/10/07 10:57:52;;;;;;;22.67;2.70;;;;;;;17.54;21.43;102098.47;1726498;82;21101;-78
2021/10/07 11:00:34;;;;;;;13.28;2.30;;;;;;;17.67;21.38;102097.13;1725955;82;20999;-77
2021/10/07 11:03:17;;;;;;;5.05;1.50;;;;;;;17.64;22.02;102090.55;1721133;82;21086;-78
2021/10/07 11:06:01;;;;;;;8.00;1.65;;;;;;;17.28;20.59;102101.58;1734732;82;21077;-78
2021/10/07 11:08:51;;;;;;;6.33;2.30;;;;;;;17.07;21.25;102092.52;1724138;82;20993;-79
2021/10/07 11:11:25;;;;;;;9.00;2.42;;;;;;;17.25;22.06;102095.00;1727160;82;21347;-78
2021/10/07 11:13:53;;;;;;;8.55;2.60;;;;;;;17.29;21.40;102100.63;1726011;82;21146;-78
2021/10/07 11:16:21;;;;;;;6.67;2.58;;;;;;;17.09;21.46;102085.35;1721186;82;21137;-77
2021/10/07 11:18:49;;;;;;;6.37;2.10;;;;;;;16.95;21.78;102085.77;1722318;82;22200;-79
2021/10/07 11:21:19;;;;;;;10.55;2.30;;;;;;;16.82;21.87;102091.11;1727198;82;21076;-77
2021/10/07 11:23:52;;;;;;;6.87;2.00;;;;;;;16.87;22.76;102094.48;1724398;82;21124;-79
2021/10/07 11:26:25;;;;;;;6.67;2.60;;;;;;;16.82;23.36;102084.45;1726809;82;21080;-78
2021/10/07 11:28:52;;;;;;;9.75;2.58;;;;;;;16.79;22.88;102084.53;1717497;83;21093;-80
2021/10/07 11:31:25;;;;;;;10.32;1.98;;;;;;;16.78;22.10;102094.28;1717293;83;21045;-79
2021/10/07 11:33:57;;;;;;;8.88;2.10;;;;;;;16.56;22.19;102073.25;1719227;82;21061;-77
2021/10/07 11:36:27;;;;;;;4.78;2.17;;;;;;;16.53;22.30;102084.86;1728789;82;21132;-78
2021/10/07 11:38:54;;;;;;;10.03;1.77;;;;;;;16.49;23.79;102080.55;1725383;82;21500;-77